Time;durP1;ratioP1;P1;durP2;ratioP2;P2;SDS_P1;SDS_P2;PMS_P1;PMS_P2;Temp;Humidity;BMP_temperature;BMP_pressure;BME280_temperature;BME280_humidity;BME280_pressure;Samples;Min_cycle;Max_cycle;Signal;HPM_P1;HPM_P2
2023/09/24 00:08:59;;;;;;;15.15;4.30;;;;;;;23.82;74.42;100860.00;20880315;28;20053;-67
2023/09/24 00:19:24;;;;;;;16.52;3.80;;;;;;;23.72;73.98;100858.56;20807164;28;20061;-67
2023/09/24 00:29:47;;;;;;;18.42;4.07;;;;;;;23.63;73.75;100855.34;20803356;28;20437;-67
2023/09/24 00:40:13;;;;;;;19.75;4.07;;;;;;;23.57;73.35;100851.03;20804863;28;20164;-67
2023/09/24 00:50:41;;;;;;;15.40;4.35;;;;;;;23.52;72.61;100842.22;20842650;28;20045;-67
2023/09/24 01:01:06;;;;;;;22.83;4.43;;;;;;;23.46;72.67;100842.41;20838114;28;20053;-67
2023/09/24 01:11:31;;;;;;;18.90;4.28;;;;;;;23.53;71.50;100838.59;20837786;28;20068;-67
2023/09/24 01:22:02;;;;;;;16.42;4.32;;;;;;;23.49;71.93;100826.19;20856725;28;20056;-67
2023/09/24 01:32:25;;;;;;;19.10;4.68;;;;;;;23.37;73.08;100830.16;20836612;28;20052;-67
2023/09/24 01:42:51;;;;;;;19.63;5.20;;;;;;;23.27;73.74;100826.03;20834135;28;20076;-67
2023/09/24 01:53:14;;;;;;;16.60;4.40;;;;;;;23.15;74.19;100834.56;20857653;28;20145;-68
2023/09/24 02:03:39;;;;;;;24.38;5.53;;;;;;;23.10;75.37;100831.16;20814413;28;20786;-68
2023/09/24 02:14:02;;;;;;;17.42;4.70;;;;;;;23.00;75.86;100827.88;20822359;28;20053;-67
2023/09/24 02:24:26;;;;;;;16.20;4.65;;;;;;;22.98;76.63;100831.56;20891961;28;20056;-67
2023/09/24 02:34:49;;;;;;;17.88;4.70;;;;;;;22.91;77.51;100828.19;20876329;28;20424;-67
2023/09/24 02:45:15;;;;;;;18.60;4.55;;;;;;;22.89;77.94;100830.06;20862403;28;20053;-67
2023/09/24 02:55:38;;;;;;;16.60;4.50;;;;;;;22.75;78.42;100828.78;20857294;28;20049;-67
2023/09/24 03:06:02;;;;;;;19.15;4.95;;;;;;;22.67;78.38;100829.88;20840781;28;21011;-68
2023/09/24 03:16:26;;;;;;;20.23;4.70;;;;;;;22.57;80.11;100825.75;20856256;28;20199;-67
2023/09/24 03:26:50;;;;;;;19.67;5.22;;;;;;;22.53;80.47;100828.56;20866777;28;20049;-68
2023/09/24 03:37:14;;;;;;;18.15;4.75;;;;;;;22.47;81.05;100831.44;20860465;28;20052;-68
2023/09/24 03:47:39;;;;;;;28.85;6.00;;;;;;;22.40;82.25;100832.56;20859610;28;20406;-69
2023/09/24 03:58:02;;;;;;;23.80;5.47;;;;;;;22.39;82.51;100836.19;20845764;28;20107;-69
2023/09/24 04:08:26;;;;;;;15.25;4.53;;;;;;;22.44;81.71;100820.81;20872747;28;20052;-68
2023/09/24 04:18:50;;;;;;;16.85;4.28;;;;;;;22.37;82.60;100820.13;20849617;28;20398;-69
2023/09/24 04:29:15;;;;;;;16.13;4.43;;;;;;;22.46;82.07;100811.72;20815651;28;20049;-69
2023/09/24 04:39:38;;;;;;;14.65;4.10;;;;;;;22.83;82.47;100811.44;20891104;28;20488;-69
2023/09/24 04:50:03;;;;;;;15.30;4.13;;;;;;;23.36;83.33;100822.16;20818026;28;20096;-68
2023/09/24 05:00:25;;;;;;;15.68;4.35;;;;;;;23.94;84.80;100814.59;20887470;28;20145;-69
2023/09/24 05:10:50;;;;;;;19.67;4.78;;;;;;;24.51;82.20;100815.00;20864052;28;20041;-69
2023/09/24 05:21:17;;;;;;;15.50;3.88;;;;;;;25.27;80.08;100819.03;20886437;28;20143;-69
2023/09/24 05:31:41;;;;;;;17.47;4.67;;;;;;;25.95;76.79;100818.59;20874951;28;20049;-69
2023/09/24 05:42:04;;;;;;;18.27;3.85;;;;;;;26.78;74.53;100826.31;20882179;28;20049;-69
2023/09/24 05:52:28;;;;;;;22.88;4.50;;;;;;;27.60;70.53;100830.19;20839823;28;20132;-69
2023/09/24 06:02:51;;;;;;;23.02;4.30;;;;;;;28.33;67.33;100837.91;20904211;28;20052;-69
2023/09/24 06:13:16;;;;;;;17.10;4.72;;;;;;;29.02;61.07;100840.22;20842609;28;20053;-70
2023/09/24 06:23:39;;;;;;;19.92;3.85;;;;;;;29.93;56.38;100841.91;20885653;28;20431;-70
2023/09/24 06:34:03;;;;;;;20.23;4.20;;;;;;;30.93;47.81;100842.56;20875248;28;20092;-70
2023/09/24 06:44:25;;;;;;;21.42;3.75;;;;;;;31.72;42.53;100850.75;20895340;28;20057;-70
2023/09/24 06:54:49;;;;;;;25.35;4.47;;;;;;;32.31;40.27;100854.66;20885407;28;20563;-70
2023/09/24 07:05:12;;;;;;;18.40;3.55;;;;;;;32.78;39.03;100852.03;20876362;28;20140;-71
2023/09/24 07:15:36;;;;;;;21.33;4.00;;;;;;;33.15;37.16;100861.03;20840128;28;20111;-70
2023/09/24 07:25:58;;;;;;;17.37;4.27;;;;;;;33.54;36.06;100865.28;20786072;28;20057;-70
2023/09/24 07:36:24;;;;;;;20.58;3.58;;;;;;;33.59;35.76;100856.72;20847746;28;20045;-70
2023/09/24 07:46:47;;;;;;;29.55;4.65;;;;;;;33.85;35.84;100857.44;20828930;28;20049;-70
2023/09/24 07:57:11;;;;;;;17.80;3.50;;;;;;;34.23;35.81;100862.56;20779778;28;20145;-70
2023/09/24 08:07:36;;;;;;;20.75;4.13;;;;;;;34.45;34.66;100847.97;20811137;28;20121;-70
2023/09/24 08:18:00;;;;;;;;;;;;;;;34.56;34.99;100862.53;20861387;28;20072;-70
2023/09/24 08:28:22;;;;;;;22.73;4.68;;;;;;;34.67;34.72;100868.00;20873657;28;19968;-71
2023/09/24 08:38:47;;;;;;;16.48;3.40;;;;;;;34.81;34.42;100863.25;20867889;28;20041;-70
2023/09/24 08:49:10;;;;;;;17.02;3.53;;;;;;;34.71;33.93;100853.06;20879430;28;20559;-70
2023/09/24 08:59:35;;;;;;;17.90;3.50;;;;;;;35.02;32.15;100842.22;20894322;28;20053;-70
2023/09/24 09:09:59;;;;;;;16.15;3.60;;;;;;;35.12;31.27;100837.69;20890830;28;20040;-70
2023/09/24 09:20:40;;;;;;;19.40;4.00;;;;;;;35.50;30.78;100832.53;20895190;28;20060;-70
2023/09/24 09:31:05;;;;;;;17.13;4.45;;;;;;;35.89;29.46;100827.28;20906566;28;20143;-70
2023/09/24 09:41:33;;;;;;;19.48;4.28;;;;;;;36.14;29.30;100813.06;20889368;28;20047;-70
2023/09/24 09:52:01;;;;;;;14.50;2.97;;;;;;;36.08;28.86;100805.38;20887507;28;20405;-70
2023/09/24 10:02:27;;;;;;;15.02;2.97;;;;;;;36.14;28.73;100790.19;20872543;28;20086;-70
2023/09/24 10:12:49;;;;;;;16.42;3.33;;;;;;;36.00;29.01;100771.31;20793325;28;20046;-69
2023/09/24 10:23:35;;;;;;;22.58;4.50;;;;;;;35.58;30.59;100769.50;20867488;28;20041;-70
2023/09/24 10:33:59;;;;;;;20.67;3.92;;;;;;;35.34;30.06;100766.19;20888611;28;20497;-70
2023/09/24 10:44:24;;;;;;;21.88;4.57;;;;;;;34.96;30.70;100768.66;20885448;28;20119;-70
2023/09/24 10:54:47;;;;;;;20.40;4.80;;;;;;;34.68;31.42;100768.22;20872337;28;20041;-70
2023/09/24 11:05:12;;;;;;;24.50;4.25;;;;;;;34.49;32.03;100762.56;20899405;28;20048;-70
2023/09/24 11:15:36;;;;;;;15.83;4.13;;;;;;;34.23;32.82;100758.41;20898363;28;20084;-70
2023/09/24 11:26:00;;;;;;;18.38;4.05;;;;;;;34.15;32.66;100753.50;20866927;28;20090;-70
2023/09/24 11:36:27;;;;;;;19.08;5.32;;;;;;;33.88;33.37;100747.56;20879495;28;20048;-70
2023/09/24 11:46:51;;;;;;;21.30;4.40;;;;;;;33.97;32.39;100750.44;20868348;28;20052;-70
2023/09/24 11:57:14;;;;;;;27.77;5.47;;;;;;;34.17;30.84;100734.19;20877663;28;20179;-70
2023/09/24 12:07:39;;;;;;;18.25;3.67;;;;;;;34.11;31.53;100727.38;20874194;28;20058;-70
2023/09/24 12:18:04;;;;;;;19.15;4.18;;;;;;;34.00;31.97;100721.91;20869844;28;20057;-70
2023/09/24 12:28:28;;;;;;;22.33;4.03;;;;;;;33.61;32.92;100715.91;20826388;28;20115;-70
2023/09/24 12:38:51;;;;;;;21.48;4.65;;;;;;;33.37;33.50;100723.38;20877440;28;20083;-71
2023/09/24 12:49:15;;;;;;;21.55;4.53;;;;;;;33.43;31.64;100724.75;20909401;28;20079;-71
2023/09/24 12:59:37;;;;;;;25.65;4.28;;;;;;;33.65;30.41;100726.63;20892511;28;20093;-70
2023/09/24 13:10:02;;;;;;;24.92;4.68;;;;;;;33.66;30.32;100729.25;20890775;28;20060;-70
2023/09/24 13:20:25;;;;;;;23.13;3.75;;;;;;;33.59;30.77;100745.31;20884941;28;20127;-71
2023/09/24 13:30:49;;;;;;;24.45;3.83;;;;;;;33.49;30.95;100736.09;20878513;28;20102;-70
2023/09/24 13:41:12;;;;;;;15.18;3.83;;;;;;;33.17;31.12;100737.75;20887588;28;20060;-71
2023/09/24 13:51:41;;;;;;;22.88;4.20;;;;;;;33.03;31.76;100730.63;20891412;28;20044;-71
2023/09/24 14:02:05;;;;;;;25.17;5.15;;;;;;;32.90;32.09;100737.19;20884875;28;20073;-72
2023/09/24 14:12:29;;;;;;;23.73;4.82;;;;;;;32.75;32.83;100728.31;20874599;28;20083;-71
2023/09/24 14:22:52;;;;;;;23.35;4.60;;;;;;;32.55;31.84;100731.69;20887811;28;20692;-70
2023/09/24 14:33:17;;;;;;;28.65;5.18;;;;;;;32.42;31.88;100734.47;20873496;28;20481;-71
2023/09/24 14:43:40;;;;;;;25.17;4.88;;;;;;;32.10;31.89;100730.53;20906994;28;20449;-71
2023/09/24 14:54:05;;;;;;;30.08;5.07;;;;;;;31.85;32.09;100739.66;20867391;28;20168;-72
2023/09/24 15:04:28;;;;;;;27.00;4.25;;;;;;;31.63;32.42;100741.25;20865454;28;20469;-72
2023/09/24 15:14:52;;;;;;;20.17;4.88;;;;;;;31.47;32.90;100754.19;20881295;28;20056;-72
2023/09/24 15:25:15;;;;;;;25.95;5.18;;;;;;;31.26;33.07;100755.72;20877248;28;20045;-72
2023/09/24 15:35:38;;;;;;;23.42;5.07;;;;;;;30.99;33.43;100757.59;20891001;28;20397;-72
2023/09/24 15:46:01;;;;;;;26.83;4.80;;;;;;;30.67;34.32;100768.00;20891480;28;20053;-71
2023/09/24 15:56:25;;;;;;;28.30;5.72;;;;;;;30.40;34.85;100770.69;20875127;28;20659;-71
2023/09/24 16:06:48;;;;;;;22.73;4.60;;;;;;;30.02;35.42;100768.66;20879522;28;20056;-71
2023/09/24 16:17:11;;;;;;;25.55;5.47;;;;;;;29.64;36.12;100773.81;20876941;28;20056;-71
2023/09/24 16:27:34;;;;;;;22.77;4.70;;;;;;;29.40;37.04;100785.38;20861290;28;20075;-70
2023/09/24 16:37:59;;;;;;;31.10;6.30;;;;;;;29.17;38.22;100784.03;20885977;28;20052;-71
2023/09/24 16:48:22;;;;;;;30.45;5.78;;;;;;;29.09;37.83;100783.59;20889398;28;20053;-70
2023/09/24 16:58:46;;;;;;;17.75;5.10;;;;;;;28.87;38.24;100786.78;20892931;28;20069;-72
2023/09/24 17:09:10;;;;;;;20.73;4.80;;;;;;;28.64;38.77;100796.25;20864396;28;20053;-71
2023/09/24 17:19:34;;;;;;;34.30;6.25;;;;;;;28.60;39.03;100799.25;20861373;28;20045;-71
2023/09/24 17:29:57;;;;;;;23.20;4.65;;;;;;;28.43;39.29;100798.38;20881851;28;20068;-71
2023/09/24 17:40:23;;;;;;;36.10;9.48;;;;;;;28.16;40.28;100805.38;20869658;28;20060;-71
2023/09/24 17:50:46;;;;;;;34.72;5.55;;;;;;;27.88;40.57;100810.56;20862453;28;20065;-71
2023/09/24 18:01:12;;;;;;;24.13;5.50;;;;;;;27.57;40.98;100820.38;20863410;28;20428;-71
2023/09/24 18:11:35;;;;;;;22.20;4.32;;;;;;;27.27;41.78;100817.44;20837913;28;20041;-71
2023/09/24 18:21:59;;;;;;;24.15;4.47;;;;;;;27.14;41.90;100824.47;20857363;28;20083;-71
2023/09/24 18:32:21;;;;;;;19.92;4.72;;;;;;;26.91;42.49;100816.66;20863699;28;20132;-71
2023/09/24 18:42:47;;;;;;;18.83;4.82;;;;;;;26.67;42.85;100826.84;20867954;28;20041;-71
2023/09/24 18:53:09;;;;;;;18.65;4.68;;;;;;;26.48;43.18;100831.41;20865129;28;20041;-70
2023/09/24 19:03:37;;;;;;;26.48;5.05;;;;;;;26.31;44.08;100826.84;20842744;28;20045;-70
2023/09/24 19:14:02;;;;;;;21.35;4.88;;;;;;;26.25;44.24;100823.56;20846905;28;20523;-72
2023/09/24 19:24:27;;;;;;;19.92;4.88;;;;;;;26.06;43.76;100815.38;20877010;28;20140;-71
2023/09/24 19:34:50;;;;;;;23.35;4.03;;;;;;;25.89;43.85;100816.19;20862940;28;20045;-71
2023/09/24 19:45:14;;;;;;;19.90;5.20;;;;;;;25.71;44.61;100812.50;20853165;28;20072;-71
2023/09/24 19:55:37;;;;;;;23.35;4.32;;;;;;;25.56;45.21;100815.00;20845295;28;20057;-71
2023/09/24 20:06:05;;;;;;;22.25;5.28;;;;;;;25.33;45.08;100803.41;20865924;28;20049;-71
2023/09/24 20:16:27;;;;;;;20.00;4.50;;;;;;;25.23;45.42;100801.16;20860355;28;20060;-71
2023/09/24 20:26:51;;;;;;;22.08;4.80;;;;;;;25.13;45.99;100791.72;20871092;28;20367;-71
2023/09/24 20:37:14;;;;;;;21.67;4.60;;;;;;;25.00;46.01;100789.56;20882471;28;20802;-71
2023/09/24 20:47:38;;;;;;;23.75;4.93;;;;;;;24.82;46.21;100795.69;20866212;28;20045;-71
2023/09/24 20:58:00;;;;;;;20.77;4.78;;;;;;;24.70;46.09;100785.41;20887627;28;20136;-71
2023/09/24 21:08:24;;;;;;;21.35;4.47;;;;;;;24.58;46.40;100778.72;20893519;28;20060;-70
2023/09/24 21:18:47;;;;;;;22.77;4.57;;;;;;;24.48;47.00;100765.69;20881686;28;20096;-71
2023/09/24 21:29:11;;;;;;;29.10;5.35;;;;;;;24.33;47.67;100766.31;20863821;28;20076;-71
2023/09/24 21:39:33;;;;;;;25.77;4.32;;;;;;;24.25;47.94;100763.91;20881455;28;20135;-71
2023/09/24 21:49:59;;;;;;;19.25;4.05;;;;;;;24.23;47.50;100758.56;20849324;28;20045;-72
2023/09/24 22:00:25;;;;;;;25.65;4.75;;;;;;;24.14;47.57;100748.16;20881888;28;20060;-72
2023/09/24 22:10:49;;;;;;;19.95;4.10;;;;;;;24.08;47.62;100724.13;20874907;28;20052;-72
2023/09/24 22:21:12;;;;;;;26.05;4.20;;;;;;;23.93;47.78;100729.25;20880789;28;20045;-71
2023/09/24 22:31:37;;;;;;;21.35;4.80;;;;;;;23.81;47.67;100730.59;20881661;28;20052;-71
2023/09/24 22:41:59;;;;;;;25.42;4.55;;;;;;;23.78;47.11;100718.13;20844235;28;20060;-71
2023/09/24 22:52:24;;;;;;;28.83;4.25;;;;;;;23.72;47.27;100710.28;20846899;28;20040;-71
2023/09/24 23:02:47;;;;;;;20.13;4.35;;;;;;;23.63;47.23;100713.31;20882789;28;20508;-71
2023/09/24 23:13:12;;;;;;;21.20;4.63;;;;;;;23.54;47.02;100710.13;20887783;28;20122;-71
2023/09/24 23:23:34;;;;;;;22.00;4.32;;;;;;;23.45;47.25;100693.31;20876460;28;20055;-71
2023/09/24 23:33:59;;;;;;;22.95;3.55;;;;;;;23.43;47.11;100694.34;20870439;28;20109;-71
2023/09/24 23:44:21;;;;;;;21.10;3.15;;;;;;;23.35;47.59;100686.53;20868674;28;20504;-71
2023/09/24 23:54:46;;;;;;;25.27;4.10;;;;;;;23.29;47.83;100686.78;20868294;28;20087;-71
